createdAt,value
2022-11-18T00:01:36.540Z,99360.97
2022-11-18T00:04:05.695Z,99314.38
2022-11-18T00:06:36.378Z,99364.19
2022-11-18T00:09:05.558Z,99360.56
2022-11-18T00:11:52.454Z,99360.94
2022-11-18T00:14:24.767Z,99356.72
2022-11-18T00:16:55.898Z,99363.13
2022-11-18T00:19:27.273Z,99362.44
2022-11-18T00:21:58.132Z,99369.94
2022-11-18T00:24:27.386Z,99323.16
2022-11-18T00:26:57.002Z,99362.75
2022-11-18T00:29:28.379Z,99352.31
2022-11-18T00:31:58.088Z,99262.28
2022-11-18T00:34:27.461Z,99310.06
2022-11-18T00:36:57.923Z,99353.69
2022-11-18T00:39:27.241Z,99356.53
2022-11-18T00:42:14.092Z,99361.53
2022-11-18T00:44:43.081Z,99360.75
2022-11-18T00:47:11.969Z,99362.25
2022-11-18T00:49:40.887Z,99363.38
2022-11-18T00:52:11.433Z,99327.50
2022-11-18T00:54:41.301Z,99361.06
2022-11-18T00:57:10.503Z,99358.16
2022-11-18T00:59:39.508Z,99329.72
2022-11-18T01:02:08.690Z,99367.47
2022-11-18T04:17:20.741Z,99345.13
2022-11-18T04:19:50.171Z,99405.91
2022-11-18T04:22:19.648Z,99386.69
2022-11-18T04:24:48.950Z,99407.56
2022-11-18T04:27:18.440Z,99416.75
2022-11-18T04:29:47.518Z,99395.84
2022-11-18T04:32:18.087Z,99421.34
2022-11-18T04:34:48.257Z,99398.69
2022-11-18T04:37:17.922Z,99424.22
2022-11-18T04:39:46.954Z,99416.31
2022-11-18T04:42:16.163Z,99430.81
2022-11-18T04:44:45.594Z,99417.75
2022-11-18T04:47:15.400Z,99401.25
2022-11-18T04:49:45.939Z,99441.94
2022-11-18T04:52:15.451Z,99426.50
2022-11-18T04:54:45.120Z,99442.69
2022-11-18T04:57:14.572Z,99456.72
2022-11-18T04:59:44.181Z,99414.16
2022-11-18T05:02:14.449Z,99452.63
2022-11-18T05:04:45.501Z,99447.47
2022-11-18T05:07:16.660Z,99447.53
2022-11-18T05:09:46.293Z,99462.72
2022-11-18T05:12:34.102Z,99457.13
2022-11-18T05:15:03.769Z,99464.19
2022-11-18T05:17:35.685Z,99423.16
2022-11-18T05:20:06.975Z,99465.47
2022-11-18T05:22:36.587Z,99450.78
2022-11-18T05:25:08.523Z,99455.03
2022-11-18T05:27:37.875Z,99424.25
2022-11-18T05:30:07.866Z,99458.09
2022-11-18T05:32:37.290Z,99462.84
2022-11-18T05:35:08.541Z,99454.88
2022-11-18T05:37:37.451Z,99470.16
2022-11-18T05:40:08.171Z,99470.75
2022-11-18T05:42:55.788Z,99464.31
2022-11-18T05:45:25.037Z,99471.84
2022-11-18T05:48:04.576Z,99466.63
2022-11-18T05:50:37.643Z,99478.53
2022-11-18T05:53:07.430Z,99493.59
2022-11-18T05:55:44.181Z,99483.59
2022-11-18T05:58:13.497Z,99462.13
2022-11-18T06:00:43.725Z,99479.25
2022-11-18T06:03:19.350Z,99492.31
2022-11-18T06:05:50.186Z,99508.78
2022-11-18T06:08:20.243Z,99488.00
2022-11-18T06:10:52.030Z,99421.03
2022-11-18T06:13:25.870Z,99506.28
2022-11-18T06:15:55.302Z,99510.59
2022-11-18T06:18:27.563Z,99485.47
2022-11-18T06:21:02.616Z,99512.94
2022-11-18T06:23:35.520Z,99494.75
2022-11-18T06:26:05.789Z,99498.53
2022-11-18T06:28:35.675Z,99467.66
2022-11-18T06:31:04.926Z,99502.13
2022-11-18T06:33:34.015Z,99518.53
2022-11-18T06:36:04.603Z,99452.97
2022-11-18T06:38:33.963Z,99512.56
2022-11-18T06:41:03.378Z,99519.00
2022-11-18T06:43:42.564Z,99515.63
2022-11-18T06:46:31.609Z,99484.41
2022-11-18T06:49:01.292Z,99506.31
2022-11-18T06:51:31.773Z,99465.38
2022-11-18T06:54:02.705Z,99524.97
2022-11-18T06:56:35.484Z,99520.16
2022-11-18T06:59:05.004Z,99513.28
2022-11-18T07:01:36.909Z,99531.56
2022-11-18T07:04:06.482Z,99428.56
2022-11-18T07:06:38.189Z,99499.72
2022-11-18T07:09:08.444Z,99513.47
2022-11-18T07:11:40.431Z,99514.19
2022-11-18T07:14:09.935Z,99484.22
2022-11-18T07:16:39.466Z,99439.28
2022-11-18T07:19:12.912Z,99522.75
2022-11-18T07:21:43.759Z,99533.69
2022-11-18T07:24:15.551Z,99533.41
2022-11-18T07:26:45.104Z,99537.34
2022-11-18T07:29:14.654Z,99530.13
2022-11-18T07:31:43.682Z,99534.13
2022-11-18T07:34:14.027Z,99496.53
2022-11-18T07:36:44.352Z,99494.56
2022-11-18T07:39:13.795Z,99550.19
2022-11-18T07:41:43.259Z,99560.84
2022-11-18T07:44:13.729Z,99547.81
2022-11-18T07:46:43.343Z,99519.00
2022-11-18T07:49:14.264Z,99515.97
2022-11-18T07:51:45.044Z,99540.13
2022-11-18T07:54:17.190Z,99567.53
2022-11-18T07:56:46.745Z,99564.22
2022-11-18T07:59:16.077Z,99570.00
2022-11-18T08:01:45.593Z,99573.41
2022-11-18T08:04:16.655Z,99561.69
2022-11-18T08:06:47.340Z,99567.50
2022-11-18T08:09:16.789Z,99582.81
2022-11-18T08:11:46.438Z,99565.78
2022-11-18T08:14:15.534Z,99590.97
2022-11-18T08:16:44.842Z,99600.38
2022-11-18T08:19:14.546Z,99600.84
2022-11-18T08:21:43.722Z,99602.28
2022-11-18T08:24:14.163Z,99588.06
2022-11-18T08:26:43.301Z,99522.50
2022-11-18T08:29:19.062Z,99602.78
2022-11-18T08:31:56.293Z,99620.22
2022-11-18T08:34:27.666Z,99613.72
2022-11-18T08:37:01.061Z,99614.50
2022-11-18T08:39:31.502Z,99599.34
2022-11-18T08:42:00.881Z,99534.75
2022-11-18T08:44:33.434Z,99618.56
2022-11-18T08:47:03.073Z,99622.72
2022-11-18T08:49:32.854Z,99621.81
2022-11-18T08:52:02.307Z,99625.78
2022-11-18T08:54:32.820Z,99626.63
2022-11-18T08:57:02.819Z,99616.56
2022-11-18T08:59:32.526Z,99622.97
2022-11-18T09:02:02.258Z,99635.59
2022-11-18T09:04:31.544Z,99617.75
2022-11-18T09:07:00.917Z,99621.50
2022-11-18T09:09:30.557Z,99626.78
2022-11-18T09:12:01.313Z,99574.06
2022-11-18T09:15:12.456Z,99607.75
2022-11-18T09:17:20.468Z,99629.41
2022-11-18T09:19:50.087Z,99621.25
2022-11-18T09:22:19.394Z,99631.75
2022-11-18T09:24:48.579Z,99631.16
2022-11-18T09:27:19.069Z,99635.03
2022-11-18T09:29:48.541Z,99636.97
2022-11-18T09:32:19.651Z,99644.63
2022-11-18T09:34:49.050Z,99629.28
2022-11-18T09:37:19.281Z,99625.38
2022-11-18T09:39:48.540Z,99626.13
2022-11-18T09:42:37.327Z,99638.75
2022-11-18T09:45:23.916Z,99624.06
2022-11-18T09:47:59.825Z,99640.56
2022-11-18T09:53:21.298Z,99636.41
2022-11-18T09:55:52.236Z,99636.25
2022-11-18T09:58:32.429Z,99617.28
2022-11-18T10:01:02.705Z,99636.66
2022-11-18T10:03:33.417Z,99604.84
2022-11-18T13:20:24.940Z,99727.22
2022-11-18T13:23:13.080Z,99734.81
2022-11-18T13:25:45.213Z,99717.28
2022-11-18T13:28:26.057Z,99638.91
2022-11-18T13:31:02.242Z,99649.25
2022-11-18T13:33:36.098Z,99701.31
2022-11-18T13:36:16.142Z,99688.78
2022-11-18T13:38:57.379Z,99685.38
2022-11-18T13:41:32.852Z,99720.34
2022-11-18T13:44:19.605Z,99676.13
2022-11-18T13:46:53.794Z,99693.84
2022-11-18T13:49:28.618Z,99672.09
2022-11-18T13:51:59.190Z,99711.81
2022-11-18T13:54:28.865Z,99679.53
2022-11-18T13:56:57.758Z,99695.78
2022-11-18T13:59:28.017Z,99685.28
2022-11-18T14:02:00.357Z,99725.06
2022-11-18T14:04:32.015Z,99709.13
2022-11-18T14:07:27.034Z,99733.38
2022-11-18T14:09:58.630Z,99682.91
2022-11-18T14:12:30.081Z,99698.38
2022-11-18T14:15:18.094Z,99730.72
2022-11-18T14:17:58.083Z,99710.78
2022-11-18T14:20:32.175Z,99734.19
2022-11-18T14:23:05.558Z,99742.84
2022-11-18T14:25:36.907Z,99748.44
2022-11-18T14:28:23.756Z,99665.69
2022-11-18T14:31:05.276Z,99736.41
2022-11-18T14:33:35.985Z,99716.38
2022-11-18T14:36:12.201Z,99728.50
2022-11-18T14:39:11.311Z,99726.50
2022-11-18T14:41:48.645Z,99701.94
2022-11-18T14:44:18.563Z,99605.09
2022-11-18T14:46:49.511Z,99728.84
2022-11-18T14:49:22.133Z,99634.78
2022-11-18T14:51:51.984Z,99728.75
2022-11-18T14:54:26.740Z,99659.31
2022-11-18T14:56:59.242Z,99742.19
2022-11-18T14:59:28.198Z,99712.84
2022-11-18T15:01:58.569Z,99702.25
2022-11-18T15:04:27.711Z,99680.56
2022-11-18T15:06:56.693Z,99735.06
2022-11-18T15:09:26.872Z,99732.69
2022-11-18T15:11:55.610Z,99735.25
2022-11-18T15:14:24.352Z,99696.72
2022-11-18T15:16:53.223Z,99712.13
2022-11-18T15:19:22.202Z,99718.00
2022-11-18T15:21:56.188Z,99745.00
2022-11-18T15:24:26.435Z,99736.00
2022-11-18T15:26:55.135Z,99724.63
2022-11-18T15:29:26.731Z,99714.59
2022-11-18T15:31:55.462Z,99523.63
2022-11-18T15:34:24.583Z,99707.44
2022-11-18T15:36:53.758Z,99594.13
2022-11-18T15:39:22.629Z,99627.66
2022-11-18T15:41:52.695Z,99600.97
2022-11-18T15:44:22.454Z,99635.38
2022-11-18T15:46:51.285Z,99597.00
2022-11-18T15:49:20.209Z,99555.91
2022-11-18T15:51:49.027Z,99658.38
2022-11-18T15:54:18.119Z,99694.94
2022-11-18T15:56:47.115Z,99698.78
2022-11-18T15:59:17.441Z,99693.59
2022-11-18T16:01:49.072Z,99615.03
2022-11-18T16:04:19.952Z,99713.91
2022-11-18T16:06:49.691Z,99632.88
2022-11-18T16:09:19.258Z,99652.38
2022-11-18T16:12:05.738Z,99666.28
2022-11-18T16:14:38.277Z,99698.59
2022-11-18T16:17:07.208Z,99651.28
2022-11-18T16:19:36.044Z,99710.69
2022-11-18T16:22:04.883Z,99739.41
2022-11-18T16:24:34.036Z,99725.22
2022-11-18T16:27:04.757Z,99734.69
2022-11-18T16:29:35.136Z,99739.56
2022-11-18T16:32:04.051Z,99723.06
2022-11-18T16:34:32.814Z,99738.47
2022-11-18T16:37:01.853Z,99715.06
2022-11-18T16:39:30.902Z,99747.78
2022-11-18T16:42:07.877Z,99744.78
2022-11-18T16:44:39.148Z,99719.00
2022-11-18T16:47:14.137Z,99731.28
2022-11-18T16:49:44.238Z,99655.34
2022-11-18T16:52:13.031Z,99719.47
2022-11-18T16:54:45.793Z,99742.72
2022-11-18T16:57:15.627Z,99693.66
2022-11-18T16:59:45.714Z,99745.41
2022-11-18T17:02:15.243Z,99744.13
2022-11-18T17:04:44.276Z,99700.00
2022-11-18T17:07:14.275Z,99715.69
2022-11-18T17:09:43.133Z,99710.63
2022-11-18T17:12:14.861Z,99746.19
2022-11-18T17:14:53.372Z,99743.16
2022-11-18T17:17:22.561Z,99675.13
2022-11-18T17:19:52.476Z,99655.13
2022-11-18T17:22:21.276Z,99750.22
2022-11-18T17:24:50.938Z,99663.09
2022-11-18T17:27:24.381Z,99755.38
2022-11-18T17:29:57.590Z,99652.28
2022-11-18T17:32:26.522Z,99771.53
2022-11-18T17:34:55.366Z,99631.09
2022-11-18T17:37:24.237Z,99761.59
2022-11-18T17:39:53.213Z,99731.28
2022-11-18T17:42:25.721Z,99761.31
2022-11-18T17:44:55.815Z,99689.00
2022-11-18T17:47:24.608Z,99727.41
2022-11-18T17:49:53.409Z,99739.69
2022-11-18T17:52:22.201Z,99696.19
2022-11-18T17:54:51.213Z,99744.47
2022-11-18T17:57:48.859Z,99734.56
2022-11-18T18:00:20.812Z,99734.63
2022-11-18T18:02:49.597Z,99736.72
2022-11-18T18:05:18.581Z,99677.06
2022-11-18T18:07:48.416Z,99705.06
2022-11-18T18:10:20.198Z,99734.28
2022-11-18T18:13:06.500Z,99661.91
2022-11-18T18:15:37.575Z,99698.28
2022-11-18T18:18:06.504Z,99654.47
2022-11-18T18:20:35.957Z,99671.31
2022-11-18T18:23:05.214Z,99692.13
2022-11-18T18:25:36.668Z,99636.47
2022-11-18T18:28:06.281Z,99707.28
2022-11-18T18:30:36.399Z,99708.56
2022-11-18T18:33:06.520Z,99672.06
2022-11-18T18:35:35.372Z,99651.31
2022-11-18T18:38:04.474Z,99713.97
2022-11-18T18:40:34.454Z,99686.88
2022-11-18T18:43:04.899Z,99679.66
2022-11-18T18:45:51.079Z,99652.16
2022-11-18T18:48:21.227Z,99687.94
2022-11-18T18:50:55.232Z,99734.56
2022-11-18T18:53:32.599Z,99739.78
2022-11-18T18:56:02.962Z,99738.84
2022-11-18T18:58:34.096Z,99726.47
2022-11-18T19:01:07.233Z,99702.41
2022-11-18T19:03:44.693Z,99677.28
2022-11-18T19:09:10.130Z,99752.03
2022-11-18T19:11:56.717Z,99749.94
2022-11-18T19:14:27.189Z,99754.03
2022-11-18T19:16:58.076Z,99737.84
2022-11-18T19:19:47.071Z,99734.34
2022-11-18T19:22:16.542Z,99745.00
2022-11-18T19:24:50.191Z,99744.44
2022-11-18T19:27:19.658Z,99744.53
2022-11-18T19:29:48.665Z,99748.03
2022-11-18T19:32:17.437Z,99743.38
2022-11-18T19:34:47.668Z,99732.63
2022-11-18T19:37:16.397Z,99721.66
2022-11-18T19:39:45.171Z,99719.47
2022-11-18T22:13:00.020Z,99607.78
2022-11-18T22:15:29.488Z,99613.97
2022-11-18T22:17:58.812Z,99596.69
2022-11-18T22:20:27.971Z,99602.97
2022-11-18T22:22:57.483Z,99610.94
2022-11-18T22:26:01.933Z,99602.25
2022-11-18T22:28:32.879Z,99579.41
2022-11-18T22:31:07.592Z,99599.97
2022-11-18T22:33:44.449Z,99600.13
2022-11-18T22:36:22.786Z,99593.06
2022-11-18T22:38:52.299Z,99595.81
2022-11-18T22:41:41.110Z,99483.66
2022-11-18T22:44:13.781Z,99585.38
2022-11-18T22:46:45.507Z,99587.81
2022-11-18T22:49:15.040Z,99455.72
2022-11-18T22:51:44.270Z,99568.44
2022-11-18T22:54:37.810Z,99559.97
2022-11-18T22:57:03.856Z,99501.19
2022-11-18T22:59:34.591Z,99555.38
2022-11-18T23:02:04.293Z,99547.06
2022-11-18T23:04:34.162Z,99549.72
2022-11-18T23:07:03.649Z,99535.09
2022-11-18T23:09:33.600Z,99519.59
2022-11-18T23:12:21.342Z,99529.97
2022-11-18T23:14:51.759Z,99428.22
2022-11-18T23:17:21.098Z,99524.47
2022-11-18T23:19:50.667Z,99524.34
2022-11-18T23:22:20.024Z,99513.19
2022-11-18T23:24:49.616Z,99508.88
2022-11-18T23:27:18.515Z,99512.56
2022-11-18T23:29:47.813Z,99503.19
2022-11-18T23:32:18.083Z,99486.44
2022-11-18T23:34:48.352Z,99501.66
2022-11-18T23:37:17.440Z,99482.59
2022-11-18T23:39:46.344Z,99480.88
2022-11-18T23:42:15.278Z,99502.19
2022-11-18T23:44:47.267Z,99486.25
2022-11-18T23:47:18.733Z,99460.72
2022-11-18T23:49:47.911Z,99481.00
2022-11-18T23:52:17.565Z,99436.88
2022-11-18T23:54:49.786Z,99480.00
2022-11-18T23:57:19.118Z,99471.44
2022-11-18T23:59:48.056Z,99459.47
